Time;durP1;ratioP1;P1;durP2;ratioP2;P2;SDS_P1;SDS_P2;PMS_P1;PMS_P2;Temp;Humidity;BMP_temperature;BMP_pressure;BME280_temperature;BME280_humidity;BME280_pressure;Samples;Min_cycle;Max_cycle;Signal;HPM_P1;HPM_P2
2022/05/16 00:00:33;;;;;;;58.90;2.87;;;;;;;;;;5071844;28;20494;-75
2022/05/16 00:03:02;;;;;;;59.30;3.30;;;;;;;;;;5072074;28;20483;-75
2022/05/16 00:05:29;;;;;;;59.00;2.77;;;;;;;;;;5072249;28;20560;-76
2022/05/16 00:07:56;;;;;;;59.33;3.17;;;;;;;;;;5071370;28;20484;-76
2022/05/16 00:10:23;;;;;;;60.10;3.23;;;;;;;;;;5071997;28;20847;-76
2022/05/16 00:12:50;;;;;;;58.77;2.80;;;;;;;;;;5071873;28;20548;-76
2022/05/16 00:15:19;;;;;;;58.93;2.70;;;;;;;;;;5071810;28;20457;-76
2022/05/16 00:17:47;;;;;;;59.10;2.93;;;;;;;;;;5071333;28;20531;-76
2022/05/16 00:20:14;;;;;;;59.40;3.87;;;;;;;;;;5071821;28;20468;-76
2022/05/16 00:22:42;;;;;;;60.10;4.10;;;;;;;;;;5072620;28;20949;-74
2022/05/16 00:25:11;;;;;;;59.17;2.97;;;;;;;;;;5072116;28;20460;-73
2022/05/16 00:27:38;;;;;;;64.60;3.97;;;;;;;;;;5070877;28;20535;-74
2022/05/16 00:30:07;;;;;;;59.30;3.00;;;;;;;;;;5071596;28;20553;-74
2022/05/16 00:32:34;;;;;;;60.07;3.43;;;;;;;;;;5071882;28;20466;-74
2022/05/16 00:35:03;;;;;;;58.80;2.43;;;;;;;;;;5071767;28;20898;-74
2022/05/16 00:37:30;;;;;;;59.17;3.40;;;;;;;;;;5070924;28;20448;-74
2022/05/16 00:39:57;;;;;;;59.10;2.80;;;;;;;;;;5071492;28;20504;-74
2022/05/16 00:42:24;;;;;;;59.50;3.27;;;;;;;;;;5071528;28;20531;-74
2022/05/16 00:44:51;;;;;;;59.90;3.20;;;;;;;;;;5071710;28;20930;-74
2022/05/16 00:47:18;;;;;;;59.07;2.90;;;;;;;;;;5071286;28;20609;-74
2022/05/16 00:49:49;;;;;;;59.40;2.90;;;;;;;;;;5071777;28;20453;-73
2022/05/16 00:52:19;;;;;;;59.57;3.10;;;;;;;;;;5071490;28;20443;-76
2022/05/16 00:54:50;;;;;;;59.20;2.87;;;;;;;;;;5071530;28;20443;-76
2022/05/16 00:57:18;;;;;;;59.40;3.77;;;;;;;;;;5070870;28;20547;-76
2022/05/16 00:59:47;;;;;;;59.67;3.13;;;;;;;;;;5071264;28;20949;-74
2022/05/16 01:04:59;;;;;;;59.80;3.50;;;;;;;;;;5071498;28;20476;-76
2022/05/16 01:07:31;;;;;;;59.60;3.20;;;;;;;;;;5070580;28;20884;-76
2022/05/16 01:09:58;;;;;;;59.00;2.73;;;;;;;;;;5071227;28;20999;-76
2022/05/16 01:12:30;;;;;;;59.17;3.03;;;;;;;;;;5071313;28;20534;-74
2022/05/16 01:14:58;;;;;;;59.13;3.03;;;;;;;;;;5071385;28;20448;-76
2022/05/16 01:17:26;;;;;;;59.70;3.57;;;;;;;;;;5070530;28;20987;-76
2022/05/16 01:19:53;;;;;;;58.97;2.90;;;;;;;;;;5071160;28;20455;-76
2022/05/16 01:22:32;;;;;;;59.43;2.90;;;;;;;;;;5071173;28;21038;-76
2022/05/16 01:25:01;;;;;;;59.97;3.20;;;;;;;;;;5071239;28;20480;-76
2022/05/16 01:27:28;;;;;;;58.90;3.00;;;;;;;;;;5070542;28;20486;-76
2022/05/16 01:29:56;;;;;;;59.07;3.10;;;;;;;;;;5071024;28;20995;-76
2022/05/16 01:32:23;;;;;;;59.27;3.07;;;;;;;;;;5071261;28;20534;-76
2022/05/16 01:34:50;;;;;;;60.43;3.63;;;;;;;;;;5071231;28;20555;-76
2022/05/16 01:37:18;;;;;;;59.27;2.93;;;;;;;;;;5070055;28;20460;-76
2022/05/16 01:39:46;;;;;;;59.03;2.60;;;;;;;;;;5070911;28;20455;-76
2022/05/16 01:42:16;;;;;;;59.47;2.73;;;;;;;;;;5071007;28;20447;-76
2022/05/16 01:44:43;;;;;;;59.80;3.30;;;;;;;;;;5059725;28;20881;-76
2022/05/16 01:47:10;;;;;;;59.00;2.53;;;;;;;;;;5050617;28;20451;-76
2022/05/16 01:49:37;;;;;;;59.80;3.50;;;;;;;;;;5052732;28;20551;-76
2022/05/16 01:52:05;;;;;;;59.80;3.20;;;;;;;;;;5054463;28;20448;-76
2022/05/16 01:54:32;;;;;;;59.30;2.97;;;;;;;;;;5054231;28;20471;-76
2022/05/16 01:57:01;;;;;;;59.00;2.67;;;;;;;;;;5054857;28;20445;-76
2022/05/16 01:59:28;;;;;;;58.83;2.47;;;;;;;;;;5053967;28;20445;-76
2022/05/16 02:01:55;;;;;;;58.97;2.47;;;;;;;;;;5054505;28;20570;-76
2022/05/16 02:04:22;;;;;;;59.13;2.80;;;;;;;;;;5054079;28;21022;-76
2022/05/16 02:06:49;;;;;;;59.30;3.00;;;;;;;;;;5054111;28;20450;-76
2022/05/16 02:09:16;;;;;;;59.13;3.10;;;;;;;;;;5053626;28;20937;-76
2022/05/16 02:11:43;;;;;;;58.87;2.40;;;;;;;;;;5054287;28;20551;-76
2022/05/16 02:14:12;;;;;;;59.07;2.80;;;;;;;;;;5054067;28;20536;-76
2022/05/16 02:16:39;;;;;;;59.47;2.60;;;;;;;;;;5054281;28;20843;-76
2022/05/16 02:19:06;;;;;;;59.70;3.13;;;;;;;;;;5053505;28;20451;-76
2022/05/16 02:27:03;;;;;;;58.90;2.93;;;;;;;;;;5054265;28;20420;-76
2022/05/16 02:29:31;;;;;;;60.27;2.80;;;;;;;;;;5053253;28;20503;-76
2022/05/16 02:31:58;;;;;;;59.17;2.80;;;;;;;;;;5053522;28;20547;-76
2022/05/16 02:34:26;;;;;;;59.33;3.13;;;;;;;;;;5053690;28;20440;-76
2022/05/16 02:36:53;;;;;;;59.13;3.07;;;;;;;;;;5054072;28;20825;-76
2022/05/16 02:39:20;;;;;;;59.37;2.90;;;;;;;;;;5052992;28;20464;-76
2022/05/16 02:41:49;;;;;;;59.60;3.27;;;;;;;;;;5053510;28;21035;-76
2022/05/16 02:44:16;;;;;;;58.77;2.37;;;;;;;;;;5053241;28;20496;-76
2022/05/16 02:46:45;;;;;;;59.30;2.97;;;;;;;;;;5054009;28;20551;-76
2022/05/16 02:49:12;;;;;;;58.97;2.63;;;;;;;;;;5051976;28;20536;-76
2022/05/16 02:51:39;;;;;;;58.77;2.57;;;;;;;;;;5053672;28;20470;-76
2022/05/16 02:54:06;;;;;;;58.87;2.50;;;;;;;;;;5053450;28;20498;-76
2022/05/16 02:56:33;;;;;;;59.50;3.80;;;;;;;;;;5053581;28;20820;-76
2022/05/16 02:59:01;;;;;;;59.30;3.00;;;;;;;;;;5052376;28;20897;-76
2022/05/16 03:01:29;;;;;;;59.30;3.10;;;;;;;;;;5053249;28;20469;-76
2022/05/16 03:03:57;;;;;;;58.90;3.00;;;;;;;;;;5052939;28;20547;-76
2022/05/16 03:06:24;;;;;;;59.27;3.13;;;;;;;;;;5053122;28;20444;-76
2022/05/16 03:08:51;;;;;;;58.87;2.60;;;;;;;;;;5052574;28;20539;-76
2022/05/16 03:11:19;;;;;;;58.77;2.93;;;;;;;;;;5052909;28;20515;-76
2022/05/16 03:13:46;;;;;;;60.57;3.13;;;;;;;;;;5052917;28;21159;-76
2022/05/16 03:16:13;;;;;;;59.17;2.80;;;;;;;;;;5052924;28;20532;-73
2022/05/16 03:18:40;;;;;;;58.83;2.70;;;;;;;;;;5052123;28;20535;-76
2022/05/16 03:21:09;;;;;;;59.03;3.00;;;;;;;;;;5052292;28;20476;-76
2022/05/16 03:23:36;;;;;;;67.17;3.20;;;;;;;;;;5053041;28;20506;-76
2022/05/16 03:26:04;;;;;;;59.07;3.33;;;;;;;;;;5052663;28;20487;-76
2022/05/16 03:28:31;;;;;;;59.10;2.90;;;;;;;;;;5052103;28;20444;-76
2022/05/16 03:30:59;;;;;;;58.93;2.90;;;;;;;;;;5052697;28;20472;-76
2022/05/16 03:33:27;;;;;;;59.10;2.70;;;;;;;;;;5052761;28;20826;-76
2022/05/16 03:35:56;;;;;;;58.90;2.87;;;;;;;;;;5052701;28;20479;-76
2022/05/16 03:41:10;;;;;;;59.13;2.97;;;;;;;;;;5052458;28;20462;-76
2022/05/16 03:43:38;;;;;;;59.20;2.77;;;;;;;;;;5052449;28;20868;-76
2022/05/16 03:46:05;;;;;;;58.97;2.80;;;;;;;;;;5052123;28;20483;-76
2022/05/16 03:48:32;;;;;;;59.20;2.90;;;;;;;;;;5051920;28;20471;-76
2022/05/16 03:51:00;;;;;;;58.97;3.10;;;;;;;;;;5052455;28;20472;-73
2022/05/16 03:53:29;;;;;;;58.90;3.00;;;;;;;;;;5052258;28;20595;-76
2022/05/16 03:55:56;;;;;;;59.33;3.40;;;;;;;;;;5051994;28;20447;-76
2022/05/16 03:58:23;;;;;;;59.07;2.70;;;;;;;;;;5051859;28;20900;-76
2022/05/16 04:00:50;;;;;;;59.97;3.73;;;;;;;;;;5052217;28;20984;-76
2022/05/16 04:03:17;;;;;;;59.97;3.27;;;;;;;;;;5052223;28;20500;-75
2022/05/16 04:05:44;;;;;;;59.30;2.80;;;;;;;;;;5051918;28;20492;-76
2022/05/16 04:08:11;;;;;;;58.90;2.70;;;;;;;;;;5051454;28;20539;-76
2022/05/16 04:10:42;;;;;;;59.07;2.80;;;;;;;;;;5051709;28;20555;-74
2022/05/16 04:13:09;;;;;;;59.07;3.13;;;;;;;;;;5051774;28;20830;-76
2022/05/16 04:15:37;;;;;;;58.77;2.90;;;;;;;;;;5051961;28;20452;-76
2022/05/16 04:18:04;;;;;;;58.83;2.93;;;;;;;;;;5051355;28;20504;-76
2022/05/16 04:20:31;;;;;;;59.27;3.20;;;;;;;;;;5052091;28;20472;-76
2022/05/16 04:22:59;;;;;;;59.90;3.27;;;;;;;;;;5052099;28;20441;-76
2022/05/16 04:25:26;;;;;;;59.60;3.77;;;;;;;;;;5051881;28;20576;-76
2022/05/16 04:27:54;;;;;;;59.90;4.13;;;;;;;;;;5051380;28;20881;-76
2022/05/16 04:30:22;;;;;;;60.10;4.00;;;;;;;;;;5052096;28;20469;-76
2022/05/16 04:32:49;;;;;;;58.87;3.00;;;;;;;;;;5051582;28;20548;-76
2022/05/16 04:35:16;;;;;;;58.57;2.70;;;;;;;;;;5051968;28;20532;-76
2022/05/16 04:37:43;;;;;;;59.00;2.90;;;;;;;;;;5050993;28;20536;-76
2022/05/16 04:40:12;;;;;;;59.90;3.50;;;;;;;;;;5051876;28;20619;-73
2022/05/16 04:42:41;;;;;;;59.07;2.90;;;;;;;;;;5051785;28;20546;-76
2022/05/16 04:45:10;;;;;;;58.77;3.20;;;;;;;;;;5051781;28;20975;-73
2022/05/16 04:47:38;;;;;;;58.73;2.93;;;;;;;;;;5050875;28;20969;-76
2022/05/16 04:50:05;;;;;;;59.57;3.50;;;;;;;;;;5051863;28;20471;-76
2022/05/16 04:52:33;;;;;;;61.10;4.57;;;;;;;;;;5051902;28;20467;-73
2022/05/16 04:55:00;;;;;;;60.00;3.53;;;;;;;;;;5051734;28;20461;-76
2022/05/16 04:57:28;;;;;;;59.20;3.03;;;;;;;;;;5050975;28;20451;-76
2022/05/16 04:59:55;;;;;;;59.30;3.33;;;;;;;;;;5051286;28;20485;-76
2022/05/16 05:02:23;;;;;;;59.00;3.27;;;;;;;;;;5051614;28;20532;-76
2022/05/16 05:04:50;;;;;;;58.97;3.10;;;;;;;;;;5051615;28;20487;-73
2022/05/16 05:07:18;;;;;;;60.50;4.07;;;;;;;;;;5050987;28;20548;-75
2022/05/16 05:15:15;;;;;;;58.80;2.57;;;;;;;;;;5051444;28;20946;-75
2022/05/16 05:17:44;;;;;;;59.60;3.50;;;;;;;;;;5051000;28;20862;-76
2022/05/16 05:20:14;;;;;;;59.47;3.60;;;;;;;;;;5051248;28;20505;-75
2022/05/16 05:22:41;;;;;;;59.17;3.57;;;;;;;;;;5051200;28;20883;-76
2022/05/16 05:25:10;;;;;;;58.80;2.70;;;;;;;;;;5054136;28;20544;-76
2022/05/16 05:27:37;;;;;;;61.47;3.10;;;;;;;;;;5054437;28;20989;-76
2022/05/16 05:30:05;;;;;;;59.37;3.50;;;;;;;;;;5054843;28;20566;-75
2022/05/16 05:32:32;;;;;;;59.10;3.10;;;;;;;;;;5054965;28;20453;-75
2022/05/16 05:35:00;;;;;;;60.27;4.53;;;;;;;;;;5055166;28;20442;-76
2022/05/16 05:37:27;;;;;;;59.60;3.50;;;;;;;;;;5054174;28;20466;-76
2022/05/16 05:39:58;;;;;;;58.67;2.90;;;;;;;;;;5055131;28;20944;-73
2022/05/16 05:42:25;;;;;;;59.80;3.83;;;;;;;;;;5054965;28;20461;-73
2022/05/16 05:44:53;;;;;;;58.87;3.07;;;;;;;;;;5054948;28;21002;-73
2022/05/16 05:47:20;;;;;;;59.50;3.70;;;;;;;;;;5054074;28;20465;-73
2022/05/16 05:49:47;;;;;;;59.47;3.00;;;;;;;;;;5054554;28;20497;-73
2022/05/16 05:52:16;;;;;;;59.20;3.17;;;;;;;;;;5054878;28;20451;-73
2022/05/16 05:54:43;;;;;;;59.17;3.03;;;;;;;;;;5054828;28;20459;-73
2022/05/16 05:57:11;;;;;;;59.07;3.20;;;;;;;;;;5053937;28;20459;-73
2022/05/16 05:59:38;;;;;;;59.23;3.30;;;;;;;;;;5054487;28;20448;-73
2022/05/16 06:02:05;;;;;;;64.33;4.80;;;;;;;;;;5054836;28;20458;-73
2022/05/16 06:04:33;;;;;;;59.07;3.20;;;;;;;;;;5054547;28;20454;-73
2022/05/16 06:07:00;;;;;;;60.00;3.63;;;;;;;;;;5054415;28;20542;-73
2022/05/16 06:09:30;;;;;;;59.60;3.33;;;;;;;;;;5053843;28;20490;-73
2022/05/16 06:11:59;;;;;;;59.10;3.60;;;;;;;;;;5054138;28;20537;-74
2022/05/16 06:14:26;;;;;;;60.37;4.33;;;;;;;;;;5054231;28;20451;-74
2022/05/16 06:16:53;;;;;;;58.80;2.90;;;;;;;;;;5053998;28;20478;-73
2022/05/16 06:19:20;;;;;;;61.40;3.10;;;;;;;;;;5053684;28;20450;-74
2022/05/16 06:21:48;;;;;;;59.87;3.97;;;;;;;;;;5053925;28;21028;-76
2022/05/16 06:26:58;;;;;;;59.60;3.50;;;;;;;;;;5053747;28;20436;-76
2022/05/16 06:29:26;;;;;;;59.17;3.20;;;;;;;;;;5053648;28;20446;-75
2022/05/16 06:31:53;;;;;;;59.90;3.77;;;;;;;;;;5054231;28;20837;-75
2022/05/16 06:34:20;;;;;;;59.90;3.80;;;;;;;;;;5053605;28;21033;-75
2022/05/16 06:36:48;;;;;;;59.63;3.43;;;;;;;;;;5054079;28;20477;-77
2022/05/16 06:39:15;;;;;;;59.20;3.33;;;;;;;;;;5053100;28;20458;-76
2022/05/16 06:41:42;;;;;;;64.80;3.80;;;;;;;;;;5053744;28;20478;-76
2022/05/16 06:44:14;;;;;;;59.40;3.33;;;;;;;;;;5053748;28;20447;-74
2022/05/16 06:46:41;;;;;;;61.33;4.03;;;;;;;;;;5053959;28;20484;-74
2022/05/16 06:49:08;;;;;;;60.50;3.97;;;;;;;;;;5052711;28;20451;-76
2022/05/16 06:51:36;;;;;;;59.33;3.57;;;;;;;;;;5053196;28;21009;-75
2022/05/16 06:54:03;;;;;;;59.07;3.47;;;;;;;;;;5053566;28;20512;-74
2022/05/16 06:56:30;;;;;;;59.40;3.30;;;;;;;;;;5053562;28;20448;-74
2022/05/16 06:58:58;;;;;;;58.97;3.17;;;;;;;;;;5052994;28;20457;-74
2022/05/16 07:01:27;;;;;;;59.00;3.07;;;;;;;;;;5053498;28;21008;-74
2022/05/16 07:03:54;;;;;;;58.77;2.60;;;;;;;;;;5053444;28;20459;-74
2022/05/16 07:06:22;;;;;;;59.53;3.53;;;;;;;;;;5053222;28;20491;-74
2022/05/16 07:08:49;;;;;;;61.73;3.33;;;;;;;;;;5052484;28;20483;-74
2022/05/16 07:11:16;;;;;;;59.53;4.03;;;;;;;;;;5053523;28;20468;-74
2022/05/16 07:13:43;;;;;;;59.30;3.30;;;;;;;;;;5053377;28;20877;-74
2022/05/16 07:16:10;;;;;;;58.97;3.00;;;;;;;;;;5053099;28;20828;-74
2022/05/16 07:18:39;;;;;;;58.80;3.10;;;;;;;;;;5052342;28;21034;-75
2022/05/16 07:21:07;;;;;;;58.97;3.10;;;;;;;;;;5053012;28;20988;-75
2022/05/16 07:23:34;;;;;;;59.80;3.20;;;;;;;;;;5052676;28;20510;-75
2022/05/16 07:28:46;;;;;;;59.60;3.20;;;;;;;;;;5052361;28;20424;-75
2022/05/16 07:31:13;;;;;;;59.50;3.53;;;;;;;;;;5052871;28;20499;-75
2022/05/16 07:33:42;;;;;;;60.50;3.70;;;;;;;;;;5052651;28;20529;-75
2022/05/16 07:36:09;;;;;;;61.87;3.47;;;;;;;;;;5052456;28;20451;-76
2022/05/16 07:38:36;;;;;;;60.40;3.40;;;;;;;;;;5052361;28;20541;-75
2022/05/16 07:41:04;;;;;;;61.20;2.80;;;;;;;;;;5052708;28;20494;-75
2022/05/16 07:43:31;;;;;;;58.87;2.60;;;;;;;;;;5052516;28;20539;-75
2022/05/16 07:45:58;;;;;;;59.60;2.90;;;;;;;;;;5052228;28;20573;-76
2022/05/16 07:48:25;;;;;;;59.10;2.90;;;;;;;;;;5051681;28;20545;-76
2022/05/16 07:50:54;;;;;;;59.83;3.47;;;;;;;;;;5052721;28;20471;-75
2022/05/16 07:53:21;;;;;;;63.50;3.50;;;;;;;;;;5052523;28;20992;-75
2022/05/16 07:55:51;;;;;;;80.57;3.70;;;;;;;;;;5052519;28;20440;-75
2022/05/16 07:58:20;;;;;;;63.33;3.27;;;;;;;;;;5051863;28;20494;-75
2022/05/16 08:00:48;;;;;;;59.53;3.10;;;;;;;;;;5052082;28;21081;-76
2022/05/16 08:03:15;;;;;;;59.07;3.00;;;;;;;;;;5051890;28;20539;-76
2022/05/16 08:05:43;;;;;;;59.97;3.50;;;;;;;;;;5052216;28;21008;-75
2022/05/16 08:10:57;;;;;;;59.87;3.60;;;;;;;;;;5051989;28;20823;-76
2022/05/16 08:13:25;;;;;;;59.17;3.03;;;;;;;;;;5052034;28;20523;-75
2022/05/16 08:15:52;;;;;;;59.57;2.90;;;;;;;;;;5052156;28;20509;-75
2022/05/16 08:18:19;;;;;;;58.97;2.93;;;;;;;;;;5051900;28;20531;-75
2022/05/16 08:20:48;;;;;;;59.17;3.17;;;;;;;;;;5052461;28;20467;-75
2022/05/16 08:23:19;;;;;;;59.07;3.17;;;;;;;;;;5052327;28;20452;-76
2022/05/16 08:25:46;;;;;;;59.40;3.37;;;;;;;;;;5052246;28;21042;-76
2022/05/16 08:28:14;;;;;;;59.17;3.07;;;;;;;;;;5058156;28;20932;-78
2022/05/16 08:30:41;;;;;;;60.30;3.90;;;;;;;;;;5072452;28;20553;-74
2022/05/16 08:33:08;;;;;;;60.37;3.47;;;;;;;;;;5072774;28;20542;-77
2022/05/16 08:35:35;;;;;;;58.53;2.97;;;;;;;;;;5074130;28;20539;-77
2022/05/16 08:40:54;;;;;;;63.60;2.80;;;;;;;;;;5073525;28;20543;-77
2022/05/16 08:43:29;;;;;;;59.70;3.00;;;;;;;;;;5074047;28;20520;-77
2022/05/16 08:45:59;;;;;;;59.97;3.17;;;;;;;;;;5073453;28;21014;-77
2022/05/16 08:48:30;;;;;;;58.87;3.23;;;;;;;;;;5073556;28;20534;-77
2022/05/16 08:50:59;;;;;;;58.90;2.93;;;;;;;;;;5073763;28;20509;-77
2022/05/16 08:53:29;;;;;;;58.57;2.60;;;;;;;;;;5074027;28;20475;-77
2022/05/16 08:56:01;;;;;;;58.57;3.10;;;;;;;;;;5074019;28;20528;-77
2022/05/16 08:58:30;;;;;;;59.47;3.10;;;;;;;;;;5075608;28;20534;-77
2022/05/16 09:00:59;;;;;;;59.10;3.27;;;;;;;;;;5079966;28;20479;-77
2022/05/16 09:03:27;;;;;;;60.00;3.73;;;;;;;;;;5080879;28;20457;-77
2022/05/16 09:05:57;;;;;;;60.70;3.50;;;;;;;;;;5078219;28;20581;-77
2022/05/16 09:08:28;;;;;;;58.93;3.17;;;;;;;;;;5079985;28;20446;-77
2022/05/16 09:11:01;;;;;;;58.73;3.30;;;;;;;;;;5076174;28;20513;-77
2022/05/16 09:13:35;;;;;;;59.00;2.90;;;;;;;;;;5076014;28;20544;-77
2022/05/16 09:16:09;;;;;;;58.60;3.27;;;;;;;;;;5075875;28;20441;-77
2022/05/16 09:18:40;;;;;;;59.07;3.80;;;;;;;;;;5075472;28;20844;-77
2022/05/16 09:21:11;;;;;;;59.17;3.10;;;;;;;;;;5075871;28;20549;-77
2022/05/16 09:23:50;;;;;;;58.80;2.90;;;;;;;;;;5076157;28;20455;-77
2022/05/16 09:26:24;;;;;;;60.10;3.20;;;;;;;;;;5076042;28;20490;-77
2022/05/16 09:28:56;;;;;;;64.80;4.07;;;;;;;;;;5089912;28;20443;-76
2022/05/16 09:31:26;;;;;;;58.87;3.30;;;;;;;;;;5096611;28;20451;-77
2022/05/16 09:33:55;;;;;;;59.60;3.40;;;;;;;;;;5075763;28;20452;-77
2022/05/16 09:36:24;;;;;;;59.03;2.90;;;;;;;;;;5075604;28;20471;-77
2022/05/16 09:38:51;;;;;;;58.17;2.67;;;;;;;;;;5074415;28;20495;-77
2022/05/16 09:41:25;;;;;;;58.80;2.73;;;;;;;;;;5075767;28;20908;-77
2022/05/16 09:43:54;;;;;;;62.37;4.50;;;;;;;;;;5075796;28;20479;-77
2022/05/16 09:46:25;;;;;;;59.80;3.47;;;;;;;;;;5075049;28;20486;-77
2022/05/16 09:49:04;;;;;;;58.90;3.03;;;;;;;;;;5075585;28;20495;-77
2022/05/16 09:51:31;;;;;;;58.80;3.20;;;;;;;;;;5077266;28;20479;-78
2022/05/16 09:54:11;;;;;;;59.00;3.07;;;;;;;;;;5077236;28;20820;-78
2022/05/16 09:56:40;;;;;;;58.93;3.30;;;;;;;;;;5077335;28;20462;-77
2022/05/16 09:59:07;;;;;;;59.30;3.10;;;;;;;;;;5076035;28;20448;-78
2022/05/16 10:01:37;;;;;;;59.20;2.80;;;;;;;;;;5076164;28;20975;-78
2022/05/16 10:04:13;;;;;;;58.57;3.03;;;;;;;;;;5077312;28;20550;-78
2022/05/16 10:06:43;;;;;;;67.63;5.40;;;;;;;;;;5076181;28;20484;-77
2022/05/16 10:09:11;;;;;;;58.77;3.10;;;;;;;;;;5075084;28;20451;-78
2022/05/16 10:11:40;;;;;;;62.30;4.40;;;;;;;;;;5077811;28;20811;-78
2022/05/16 10:14:07;;;;;;;59.57;3.83;;;;;;;;;;5077943;28;21046;-78
2022/05/16 10:16:36;;;;;;;59.23;2.87;;;;;;;;;;5076401;28;20500;-78
2022/05/16 10:19:05;;;;;;;58.97;3.20;;;;;;;;;;5076398;28;20447;-78
2022/05/16 10:21:34;;;;;;;59.17;3.00;;;;;;;;;;5076452;28;20882;-77
2022/05/16 10:24:03;;;;;;;58.50;2.97;;;;;;;;;;5076677;28;20510;-77
2022/05/16 10:26:36;;;;;;;58.70;3.20;;;;;;;;;;5077601;28;20524;-78
2022/05/16 10:29:07;;;;;;;59.23;3.30;;;;;;;;;;5077320;28;20502;-77
2022/05/16 10:34:24;;;;;;;59.70;3.70;;;;;;;;;;5075057;28;20518;-77
2022/05/16 10:36:53;;;;;;;59.67;3.27;;;;;;;;;;5075934;28;21016;-77
2022/05/16 10:39:22;;;;;;;60.30;3.40;;;;;;;;;;5074207;28;20526;-78
2022/05/16 10:41:52;;;;;;;60.57;4.07;;;;;;;;;;5074904;28;20474;-77
2022/05/16 10:44:28;;;;;;;66.33;3.10;;;;;;;;;;5075410;28;20448;-78
2022/05/16 10:47:12;;;;;;;59.00;3.30;;;;;;;;;;5074847;28;20486;-78
2022/05/16 10:49:41;;;;;;;59.93;4.13;;;;;;;;;;5074359;28;20883;-77
2022/05/16 10:52:19;;;;;;;60.70;3.57;;;;;;;;;;5073869;28;20454;-77
2022/05/16 10:54:47;;;;;;;58.97;3.30;;;;;;;;;;5075066;28;20540;-77
2022/05/16 10:57:23;;;;;;;59.97;4.10;;;;;;;;;;5073587;28;20538;-77
2022/05/16 10:59:58;;;;;;;59.30;3.67;;;;;;;;;;5074111;28;20451;-78
2022/05/16 11:02:30;;;;;;;65.83;3.87;;;;;;;;;;5074268;28;20522;-77
2022/05/16 11:05:03;;;;;;;58.87;3.23;;;;;;;;;;5073852;28;20888;-77
2022/05/16 11:07:33;;;;;;;62.90;3.90;;;;;;;;;;5073243;28;20475;-77
2022/05/16 11:10:03;;;;;;;59.20;3.40;;;;;;;;;;5073793;28;20505;-77
2022/05/16 11:12:34;;;;;;;60.33;3.57;;;;;;;;;;5073922;28;20458;-78
2022/05/16 11:15:06;;;;;;;58.67;2.70;;;;;;;;;;5073439;28;20553;-77
2022/05/16 11:17:40;;;;;;;62.07;3.83;;;;;;;;;;5073204;28;20456;-76
2022/05/16 11:20:10;;;;;;;60.37;3.03;;;;;;;;;;5073446;28;20767;-77
2022/05/16 11:22:40;;;;;;;60.07;3.40;;;;;;;;;;5072125;28;20449;-77
2022/05/16 11:25:09;;;;;;;59.50;3.30;;;;;;;;;;5073853;28;20978;-78
2022/05/16 11:27:40;;;;;;;58.77;3.20;;;;;;;;;;5073492;28;20522;-77
2022/05/16 11:30:14;;;;;;;59.67;3.23;;;;;;;;;;5073412;28;20716;-77
2022/05/16 11:32:57;;;;;;;59.10;3.03;;;;;;;;;;5072956;28;20952;-77
2022/05/16 11:35:27;;;;;;;59.87;3.40;;;;;;;;;;5073516;28;20448;-77
2022/05/16 11:38:01;;;;;;;59.87;3.20;;;;;;;;;;5072231;28;20463;-76
2022/05/16 11:40:33;;;;;;;59.40;3.50;;;;;;;;;;5072994;28;20560;-77
2022/05/16 11:43:05;;;;;;;59.90;3.40;;;;;;;;;;5073021;28;20542;-78
2022/05/16 11:45:39;;;;;;;58.97;3.00;;;;;;;;;;5073417;28;20454;-77
2022/05/16 11:48:19;;;;;;;58.77;3.00;;;;;;;;;;5071944;28;20478;-77
2022/05/16 11:50:50;;;;;;;58.60;2.67;;;;;;;;;;5072613;28;20463;-77
2022/05/16 11:53:33;;;;;;;58.43;2.80;;;;;;;;;;5072810;28;20475;-77
2022/05/16 12:01:33;;;;;;;58.63;2.80;;;;;;;;;;5072519;28;20818;-77
2022/05/16 12:04:06;;;;;;;60.43;3.17;;;;;;;;;;5072343;28;20958;-77
2022/05/16 12:06:35;;;;;;;58.63;2.80;;;;;;;;;;5072260;28;20452;-77
2022/05/16 12:09:15;;;;;;;59.40;2.77;;;;;;;;;;5071936;28;20975;-77
2022/05/16 12:11:49;;;;;;;59.20;2.57;;;;;;;;;;5072517;28;20482;-77
2022/05/16 12:14:25;;;;;;;58.50;2.90;;;;;;;;;;5073394;28;20473;-77
2022/05/16 12:16:55;;;;;;;58.80;3.07;;;;;;;;;;5072145;28;20453;-77
2022/05/16 12:19:33;;;;;;;58.60;3.03;;;;;;;;;;5071922;28;20454;-77
2022/05/16 12:22:03;;;;;;;59.00;2.77;;;;;;;;;;5072719;28;20493;-78
2022/05/16 12:24:54;;;;;;;65.90;3.10;;;;;;;;;;5072410;28;20454;-77
2022/05/16 12:27:29;;;;;;;58.37;2.60;;;;;;;;;;5056279;28;20570;-77
2022/05/16 12:29:57;;;;;;;58.70;2.40;;;;;;;;;;5071720;28;20918;-78
2022/05/16 12:32:39;;;;;;;58.77;2.67;;;;;;;;;;5071772;28;20450;-78
2022/05/16 12:35:09;;;;;;;58.70;2.37;;;;;;;;;;5071746;28;20526;-77
2022/05/16 12:37:38;;;;;;;58.90;2.60;;;;;;;;;;5071106;28;20477;-76
2022/05/16 12:40:07;;;;;;;58.80;2.53;;;;;;;;;;5072025;28;20480;-77
2022/05/16 12:42:50;;;;;;;58.83;2.63;;;;;;;;;;5071488;28;20952;-77
2022/05/16 12:45:23;;;;;;;59.47;3.47;;;;;;;;;;5071882;28;20459;-76
2022/05/16 12:48:09;;;;;;;59.07;3.27;;;;;;;;;;5071100;28;20515;-77
2022/05/16 12:50:54;;;;;;;59.07;3.00;;;;;;;;;;5071277;28;20991;-77
2022/05/16 12:53:32;;;;;;;61.80;3.23;;;;;;;;;;5071830;28;20449;-77
2022/05/16 12:56:07;;;;;;;59.00;3.20;;;;;;;;;;5071724;28;20534;-77
2022/05/16 12:58:37;;;;;;;59.20;3.07;;;;;;;;;;5071181;28;20539;-77
2022/05/16 13:01:07;;;;;;;58.77;3.20;;;;;;;;;;5071237;28;20471;-77
2022/05/16 13:03:40;;;;;;;59.13;3.07;;;;;;;;;;5071916;28;20447;-77
2022/05/16 13:06:14;;;;;;;61.00;4.40;;;;;;;;;;5079946;28;20520;-77
2022/05/16 13:08:44;;;;;;;59.90;3.53;;;;;;;;;;5072067;28;20490;-78
2022/05/16 13:11:16;;;;;;;60.60;3.40;;;;;;;;;;5071865;28;20459;-78
2022/05/16 13:13:50;;;;;;;59.30;2.87;;;;;;;;;;5071802;28;20447;-78
2022/05/16 13:16:22;;;;;;;63.30;3.93;;;;;;;;;;5071326;28;20451;-77
2022/05/16 13:18:51;;;;;;;59.10;3.13;;;;;;;;;;5070832;28;20540;-77
2022/05/16 13:21:21;;;;;;;59.07;3.03;;;;;;;;;;5071582;28;20542;-77
2022/05/16 13:23:49;;;;;;;59.40;3.10;;;;;;;;;;5071279;28;20892;-76
2022/05/16 13:31:49;;;;;;;58.47;2.53;;;;;;;;;;5071229;28;20951;-78
2022/05/16 13:34:27;;;;;;;58.90;3.03;;;;;;;;;;5071120;28;20804;-77
2022/05/16 13:36:56;;;;;;;58.40;2.83;;;;;;;;;;5071300;28;20447;-75
2022/05/16 13:39:24;;;;;;;59.20;2.73;;;;;;;;;;5070505;28;20544;-75
2022/05/16 13:41:55;;;;;;;58.83;2.43;;;;;;;;;;5070839;28;20470;-76
2022/05/16 13:44:22;;;;;;;59.10;2.30;;;;;;;;;;5071390;28;20450;-75
2022/05/16 13:46:52;;;;;;;59.03;2.20;;;;;;;;;;5074563;28;20466;-76
2022/05/16 13:49:19;;;;;;;58.70;2.77;;;;;;;;;;5074018;28;20542;-76
2022/05/16 13:51:48;;;;;;;59.83;2.70;;;;;;;;;;5075637;28;20879;-77
2022/05/16 13:54:17;;;;;;;58.90;2.60;;;;;;;;;;5076110;28;20894;-77
2022/05/16 13:56:48;;;;;;;58.27;2.27;;;;;;;;;;5074893;28;21029;-76
2022/05/16 13:59:15;;;;;;;60.37;3.10;;;;;;;;;;5074422;28;20479;-77
2022/05/16 14:01:50;;;;;;;58.40;2.33;;;;;;;;;;5076017;28;20619;-78
2022/05/16 14:04:20;;;;;;;58.07;2.30;;;;;;;;;;5074924;28;20576;-76
2022/05/16 14:06:50;;;;;;;60.73;2.73;;;;;;;;;;5074631;28;20556;-76
2022/05/16 14:09:21;;;;;;;60.47;2.80;;;;;;;;;;5073530;28;20842;-76
2022/05/16 14:11:48;;;;;;;60.70;2.70;;;;;;;;;;5074332;28;20448;-77
2022/05/16 14:14:17;;;;;;;59.50;2.37;;;;;;;;;;5074777;28;21172;-77
2022/05/16 14:16:50;;;;;;;58.60;2.60;;;;;;;;;;5074312;28;20452;-77
2022/05/16 14:19:30;;;;;;;58.00;2.10;;;;;;;;;;5074159;28;20463;-78
2022/05/16 14:22:01;;;;;;;58.07;2.43;;;;;;;;;;5074208;28;20471;-77
2022/05/16 14:24:35;;;;;;;57.63;2.07;;;;;;;;;;5073896;28;20455;-77
2022/05/16 14:27:02;;;;;;;58.40;2.50;;;;;;;;;;5073955;28;20541;-77
2022/05/16 14:29:30;;;;;;;58.43;2.60;;;;;;;;;;5073623;28;20451;-77
2022/05/16 14:32:03;;;;;;;63.23;3.50;;;;;;;;;;5073921;28;20464;-77
2022/05/16 14:34:32;;;;;;;59.00;2.50;;;;;;;;;;5074083;28;20538;-77
2022/05/16 14:37:04;;;;;;;58.40;2.80;;;;;;;;;;5073808;28;20451;-77
2022/05/16 14:39:33;;;;;;;58.70;2.70;;;;;;;;;;5073501;28;20899;-77
2022/05/16 14:42:08;;;;;;;58.20;2.63;;;;;;;;;;5073927;28;21058;-78
2022/05/16 14:44:36;;;;;;;57.97;2.30;;;;;;;;;;5073767;28;20530;-77
2022/05/16 14:47:13;;;;;;;59.57;2.83;;;;;;;;;;5073603;28;20562;-77
2022/05/16 14:49:40;;;;;;;58.70;2.50;;;;;;;;;;5073101;28;20513;-78
2022/05/16 14:52:08;;;;;;;58.13;2.40;;;;;;;;;;5074157;28;20473;-78
2022/05/16 14:54:39;;;;;;;58.87;2.60;;;;;;;;;;5076589;28;20494;-77
2022/05/16 14:57:07;;;;;;;58.17;2.30;;;;;;;;;;5073413;28;20447;-78
2022/05/16 14:59:34;;;;;;;58.37;2.83;;;;;;;;;;5073940;28;20811;-78
2022/05/16 15:04:47;;;;;;;57.57;1.90;;;;;;;;;;5074197;28;20790;-77
2022/05/16 15:07:15;;;;;;;58.40;2.60;;;;;;;;;;5072963;28;20823;-77
2022/05/16 15:09:44;;;;;;;60.10;2.80;;;;;;;;;;5073319;28;20459;-77
2022/05/16 15:12:12;;;;;;;57.87;2.10;;;;;;;;;;5073858;28;20940;-76
2022/05/16 15:14:39;;;;;;;59.47;3.03;;;;;;;;;;5073234;28;20574;-77
2022/05/16 15:17:07;;;;;;;58.40;2.37;;;;;;;;;;5073368;28;20542;-77
2022/05/16 15:19:35;;;;;;;58.50;2.40;;;;;;;;;;5073578;28;20447;-77
2022/05/16 15:22:04;;;;;;;59.03;2.70;;;;;;;;;;5073383;28;20750;-76
2022/05/16 15:24:33;;;;;;;58.17;2.80;;;;;;;;;;5073036;28;20451;-77
2022/05/16 15:27:02;;;;;;;58.37;2.30;;;;;;;;;;5072975;28;20455;-78